Time;durP1;ratioP1;P1;durP2;ratioP2;P2;SDS_P1;SDS_P2;PMS_P1;PMS_P2;Temp;Humidity;BMP_temperature;BMP_pressure;BME280_temperature;BME280_humidity;BME280_pressure;Samples;Min_cycle;Max_cycle;Signal;HPM_P1;HPM_P2
2022/01/18 00:01:51;;;;;;;2.70;2.60;;;;;;;6.59;83.74;99489.25;5067666;28;20359;-68
2022/01/18 00:04:19;;;;;;;3.80;2.23;;;;;;;6.60;83.61;99496.00;5062532;28;20554;-68
2022/01/18 00:06:49;;;;;;;3.63;2.27;;;;;;;6.60;83.58;99491.75;5055874;28;20208;-68
2022/01/18 00:09:19;;;;;;;2.60;2.50;;;;;;;6.61;83.42;99483.25;5063395;28;20234;-68
2022/01/18 00:11:51;;;;;;;2.37;2.23;;;;;;;6.67;83.21;99487.41;5063005;28;20201;-68
2022/01/18 00:14:24;;;;;;;2.40;2.30;;;;;;;6.64;83.52;99492.56;5063456;28;20287;-68
2022/01/18 00:17:06;;;;;;;2.40;2.20;;;;;;;6.65;83.33;99499.34;5067614;28;20766;-68
2022/01/18 00:19:39;;;;;;;2.30;2.20;;;;;;;6.58;83.55;99488.41;5052558;28;20214;-68
2022/01/18 00:22:11;;;;;;;2.53;2.43;;;;;;;6.64;83.63;99502.75;5053808;28;20247;-68
2022/01/18 00:24:40;;;;;;;2.47;2.37;;;;;;;6.55;84.94;99498.63;5055031;28;20599;-68
2022/01/18 00:27:11;;;;;;;2.37;2.27;;;;;;;6.56;84.78;99514.75;5058556;28;20196;-68
2022/01/18 00:29:43;;;;;;;2.27;2.17;;;;;;;6.54;85.15;99514.75;5055825;28;20199;-68
2022/01/18 00:32:18;;;;;;;3.10;2.80;;;;;;;6.45;85.00;99496.19;5061409;28;20271;-68
2022/01/18 00:34:50;;;;;;;2.30;2.20;;;;;;;6.45;85.16;99512.31;5060362;28;20668;-67
2022/01/18 00:37:35;;;;;;;2.30;2.13;;;;;;;6.47;86.03;99520.78;5062639;28;20261;-68
2022/01/18 00:40:03;;;;;;;2.30;2.20;;;;;;;6.40;86.38;99508.16;5056423;28;20212;-68
2022/01/18 00:42:30;;;;;;;2.33;2.13;;;;;;;6.49;86.64;99528.41;5050884;28;20266;-67
2022/01/18 00:44:57;;;;;;;2.30;2.20;;;;;;;6.46;87.32;99503.84;5068754;28;20696;-68
2022/01/18 00:47:25;;;;;;;1.70;1.60;;;;;;;6.40;88.45;99493.69;5060068;28;20200;-68
2022/01/18 00:49:59;;;;;;;1.43;1.33;;;;;;;6.48;88.63;99511.44;5054586;28;20223;-67
2022/01/18 00:52:28;;;;;;;1.90;1.90;;;;;;;6.46;89.07;99519.13;5058191;28;20196;-67
2022/01/18 00:54:55;;;;;;;2.10;2.00;;;;;;;6.30;89.89;99498.06;5060190;28;20247;-68
2022/01/18 00:57:22;;;;;;;1.60;1.57;;;;;;;6.39;90.08;99514.09;5066821;28;20254;-68
2022/01/18 00:59:49;;;;;;;1.47;1.47;;;;;;;6.37;90.73;99508.16;5064898;28;20211;-68
2022/01/18 01:02:15;;;;;;;1.47;1.47;;;;;;;6.36;90.77;99522.63;5064056;28;20219;-67
2022/01/18 01:04:47;;;;;;;1.63;1.53;;;;;;;6.36;91.42;99507.34;5069224;28;20210;-68
2022/01/18 01:07:16;;;;;;;2.10;1.73;;;;;;;6.34;91.40;99522.63;5071432;28;20690;-68
2022/01/18 01:09:43;;;;;;;1.57;1.57;;;;;;;6.33;91.86;99528.56;5061019;28;20678;-68
2022/01/18 01:12:13;;;;;;;1.60;1.50;;;;;;;6.05;92.17;99500.88;5055921;28;20204;-67
2022/01/18 01:14:40;;;;;;;1.60;1.60;;;;;;;6.27;92.40;99528.63;5071941;28;20200;-68
2022/01/18 01:17:20;;;;;;;1.70;1.70;;;;;;;6.26;92.61;99532.06;5065120;28;20207;-68
2022/01/18 01:36:38;;;;;;;1.30;1.30;;;;;;;6.16;93.08;99591.56;5071803;28;20202;-67
2022/01/18 01:42:04;;;;;;;1.63;1.53;;;;;;;6.25;93.13;99627.09;5062207;28;20588;-68
2022/01/18 01:44:42;;;;;;;1.73;1.47;;;;;;;6.29;92.71;99641.50;5071088;28;20211;-68
2022/01/18 01:47:11;;;;;;;1.57;1.47;;;;;;;6.29;96.40;99638.94;5071870;28;20206;-68
2022/01/18 01:49:38;;;;;;;1.23;1.20;;;;;;;6.16;100.00;99637.38;5071955;28;20243;-67
2022/01/18 01:52:08;;;;;;;1.83;1.73;;;;;;;6.07;100.00;99652.72;5066539;28;20665;-68
2022/01/18 01:54:35;;;;;;;1.63;1.53;;;;;;;6.03;100.00;99676.50;5053544;28;20219;-68
2022/01/18 01:57:02;;;;;;;1.80;1.70;;;;;;;5.97;100.00;99681.63;5057822;28;20269;-67
2022/01/18 01:59:29;;;;;;;1.90;1.90;;;;;;;5.92;100.00;99678.25;5063148;28;20196;-68
2022/01/18 02:01:55;;;;;;;2.30;2.20;;;;;;;5.86;100.00;99675.78;5059302;28;20226;-68
2022/01/18 02:04:22;;;;;;;1.80;1.70;;;;;;;5.84;100.00;99682.53;5065822;28;20665;-67
2022/01/18 02:06:49;;;;;;;2.00;1.90;;;;;;;5.82;100.00;99679.16;5063752;28;20202;-68
2022/01/18 02:09:19;;;;;;;2.40;2.13;;;;;;;5.87;100.00;99685.09;5066770;28;20236;-68
2022/01/18 02:11:46;;;;;;;2.23;2.03;;;;;;;5.88;100.00;99696.94;5071485;28;20279;-68
2022/01/18 02:14:18;;;;;;;2.20;1.90;;;;;;;5.76;100.00;99702.94;5069469;28;20204;-68
2022/01/18 02:22:16;;;;;;;1.80;1.70;;;;;;;5.56;99.83;99719.13;5062085;28;20276;-68
2022/01/18 02:24:43;;;;;;;1.83;1.73;;;;;;;5.51;99.98;99710.69;5069382;28;20695;-67
2022/01/18 02:27:10;;;;;;;1.90;1.80;;;;;;;5.50;98.34;99729.34;5063150;28;20643;-68
2022/01/18 02:29:37;;;;;;;1.70;1.60;;;;;;;5.44;96.14;99737.84;5054199;28;20300;-67
2022/01/18 02:32:06;;;;;;;1.73;1.63;;;;;;;5.45;95.56;99753.97;5055898;28;20193;-68
2022/01/18 02:34:33;;;;;;;2.10;2.00;;;;;;;5.48;93.88;99761.56;5056113;28;20226;-68
2022/01/18 02:37:03;;;;;;;1.40;1.40;;;;;;;5.44;88.41;99775.13;5070562;28;20306;-68
2022/01/18 02:39:32;;;;;;;1.40;1.40;;;;;;;5.40;85.12;99786.16;5056755;28;20203;-68
2022/01/18 02:42:02;;;;;;;1.10;1.10;;;;;;;5.30;82.34;99788.75;5067140;28;20565;-68
2022/01/18 02:44:30;;;;;;;0.90;0.90;;;;;;;5.27;82.42;99782.81;5070686;28;20334;-68
2022/01/18 02:46:58;;;;;;;1.20;1.20;;;;;;;5.22;81.07;99779.44;5070860;28;20668;-67
2022/01/18 02:49:25;;;;;;;1.30;1.30;;;;;;;5.14;79.17;99802.34;5070827;28;20207;-68
2022/01/18 02:51:53;;;;;;;1.03;1.03;;;;;;;5.05;79.42;99797.28;5057816;28;20205;-68
2022/01/18 02:54:20;;;;;;;1.90;1.70;;;;;;;5.06;79.02;99803.22;5059924;28;20203;-67
2022/01/18 02:56:53;;;;;;;1.57;1.47;;;;;;;5.05;78.01;99807.44;5063125;28;20204;-68
2022/01/18 02:59:30;;;;;;;1.90;1.80;;;;;;;4.94;77.15;99809.16;5058039;28;20263;-68
2022/01/18 03:04:47;;;;;;;1.53;1.47;;;;;;;4.71;74.49;99836.25;5037388;28;20196;-67
2022/01/18 03:07:15;;;;;;;3.97;2.90;;;;;;;4.57;73.80;99843.00;5064475;28;20203;-68
2022/01/18 03:09:41;;;;;;;1.53;1.33;;;;;;;4.51;73.68;99858.22;5061904;28;20243;-67
2022/01/18 03:12:11;;;;;;;1.10;1.10;;;;;;;4.40;75.56;99872.59;5052273;28;20200;-67
2022/01/18 03:14:39;;;;;;;1.33;1.23;;;;;;;4.34;74.21;99881.03;5054401;28;20688;-67
2022/01/18 03:17:07;;;;;;;1.07;1.07;;;;;;;4.33;73.25;99886.13;5052542;28;20291;-66
2022/01/18 03:19:34;;;;;;;2.27;1.40;;;;;;;4.24;71.43;99903.00;5056951;28;20232;-68
2022/01/18 03:22:01;;;;;;;0.93;0.93;;;;;;;4.15;69.24;99920.75;5069430;28;20200;-66
2022/01/18 03:24:47;;;;;;;1.10;1.10;;;;;;;4.15;65.77;99930.03;5063010;28;20200;-67
2022/01/18 03:30:01;;;;;;;1.47;1.37;;;;;;;4.23;63.76;99946.16;5060126;28;20662;-68
2022/01/18 03:32:27;;;;;;;1.00;1.00;;;;;;;4.28;64.79;99946.16;5061377;28;20204;-67
2022/01/18 03:34:54;;;;;;;1.20;1.13;;;;;;;4.29;62.10;99958.03;5068238;28;20722;-67
2022/01/18 03:37:21;;;;;;;;;;;;;;;4.25;62.77;99972.38;5070161;28;20203;-67
2022/01/18 03:39:47;;;;;;;;;;;;;;;4.25;62.29;99982.53;5070659;28;20366;-67
2022/01/18 03:45:13;;;;;;;;;;;;;;;4.23;61.65;99999.44;5128855;27;20915;-67
2022/01/18 03:47:40;;;;;;;;;;;;;;;4.18;61.49;100006.19;5108618;28;19931;-67
2022/01/18 03:50:08;;;;;;;;;;;;;;;4.17;62.53;100029.84;5108424;28;19959;-67
2022/01/18 03:52:35;;;;;;;;;;;;;;;4.19;60.73;100028.19;5108329;28;20388;-67
2022/01/18 03:55:02;;;;;;;1.60;1.50;;;;;;;4.04;60.52;100018.78;5109982;28;20721;-67
2022/01/18 03:57:29;;;;;;;1.10;1.10;;;;;;;4.01;61.54;100023.84;5110871;28;20209;-67
2022/01/18 03:59:55;;;;;;;1.07;1.07;;;;;;;4.07;61.29;100053.50;5106783;28;20199;-67
2022/01/18 04:02:24;;;;;;;1.10;1.10;;;;;;;4.15;61.27;100056.91;5107975;28;20745;-67
2022/01/18 04:04:51;;;;;;;1.13;1.13;;;;;;;4.13;62.46;100074.69;5106666;28;20718;-67
2022/01/18 04:07:17;;;;;;;1.10;1.00;;;;;;;4.10;61.38;100077.16;5108133;28;20670;-67
2022/01/18 04:09:45;;;;;;;1.10;1.10;;;;;;;4.14;63.01;100068.75;5105731;28;20195;-67
2022/01/18 04:12:11;;;;;;;1.30;1.30;;;;;;;4.11;63.59;100073.78;5106048;28;20198;-67
2022/01/18 04:14:38;;;;;;;0.90;0.90;;;;;;;3.90;64.60;100070.28;5106792;28;20552;-67
2022/01/18 04:17:12;;;;;;;1.50;1.40;;;;;;;3.77;63.71;100074.41;5106589;28;20195;-67
2022/01/18 04:27:58;;;;;;;2.60;1.60;;;;;;;3.54;63.43;100091.97;5106014;28;20202;-67
2022/01/18 04:30:26;;;;;;;1.00;1.00;;;;;;;3.51;62.63;100093.63;5106873;28;20230;-67
2022/01/18 04:32:52;;;;;;;1.13;1.10;;;;;;;3.49;62.65;100105.44;5106253;28;20202;-67
2022/01/18 04:35:21;;;;;;;2.50;1.27;;;;;;;3.41;63.76;100115.50;5106515;28;20554;-67
2022/01/18 04:37:47;;;;;;;1.37;1.37;;;;;;;3.40;64.82;100128.13;5107645;28;20191;-67
2022/01/18 04:40:17;;;;;;;1.73;1.10;;;;;;;3.32;65.17;100134.81;5108205;28;20198;-67
2022/01/18 04:48:30;;;;;;;1.30;1.27;;;;;;;3.24;64.96;100149.06;5087027;28;20218;-68
2022/01/18 04:50:59;;;;;;;1.37;1.37;;;;;;;3.23;63.64;100144.84;5085436;28;20681;-67
2022/01/18 04:53:29;;;;;;;1.53;1.30;;;;;;;3.27;64.83;100162.63;5086977;28;20203;-68
2022/01/18 04:55:57;;;;;;;2.10;2.00;;;;;;;3.20;65.57;100157.50;5086914;28;20564;-68
2022/01/18 04:58:25;;;;;;;5.07;4.77;;;;;;;3.17;65.28;100156.59;5087171;28;20203;-68
2022/01/18 05:00:58;;;;;;;1.57;1.53;;;;;;;3.11;65.32;100170.88;5087466;28;20203;-67
2022/01/18 05:03:26;;;;;;;2.37;2.27;;;;;;;3.15;63.91;100173.47;5087332;28;20943;-68
2022/01/18 05:05:56;;;;;;;1.87;1.77;;;;;;;3.13;63.67;100170.06;5087286;28;20659;-67
2022/01/18 05:08:23;;;;;;;1.00;1.00;;;;;;;3.22;62.42;100160.88;5086823;28;20206;-67
2022/01/18 05:10:54;;;;;;;1.63;1.53;;;;;;;3.20;61.48;100154.97;5087427;28;20675;-67
2022/01/18 05:16:23;;;;;;;3.00;1.40;;;;;;;3.43;60.09;100173.78;5086762;28;20195;-68
2022/01/18 05:19:06;;;;;;;1.60;1.20;;;;;;;3.41;60.73;100180.53;5085595;28;20560;-68
2022/01/18 05:22:55;;;;;;;1.30;1.30;;;;;;;3.36;61.14;100182.16;5083154;28;20222;-68
2022/01/18 05:24:21;;;;;;;1.53;1.53;;;;;;;3.39;60.17;100182.19;5086072;28;20304;-68
2022/01/18 05:26:48;;;;;;;1.33;1.33;;;;;;;3.41;61.07;100200.81;5086531;28;20220;-68
2022/01/18 05:29:15;;;;;;;2.20;1.57;;;;;;;3.39;61.38;100202.47;5086862;28;20198;-68
2022/01/18 05:31:44;;;;;;;1.40;1.40;;;;;;;3.36;61.41;100204.97;5085850;28;20191;-68
2022/01/18 05:34:11;;;;;;;1.53;1.53;;;;;;;3.33;61.20;100220.16;5085945;28;20195;-67
2022/01/18 05:36:38;;;;;;;1.53;1.40;;;;;;;3.34;61.62;100219.28;5086181;28;20210;-67
2022/01/18 05:39:05;;;;;;;1.70;1.70;;;;;;;3.35;61.76;100216.78;5086503;28;20207;-68
2022/01/18 05:41:32;;;;;;;1.30;1.30;;;;;;;3.33;61.72;100217.63;5085259;28;20222;-68
2022/01/18 05:43:59;;;;;;;5.83;2.67;;;;;;;3.24;62.28;100223.41;5082625;28;20854;-68
2022/01/18 05:46:26;;;;;;;3.27;2.23;;;;;;;3.20;62.75;100216.59;5085886;28;20199;-68
2022/01/18 05:48:54;;;;;;;2.20;2.10;;;;;;;3.10;62.34;100230.00;5084452;28;20210;-68
2022/01/18 05:51:21;;;;;;;4.00;1.73;;;;;;;3.09;61.40;100224.06;5085741;28;20214;-68
2022/01/18 05:53:48;;;;;;;1.87;1.60;;;;;;;3.01;61.66;100210.44;5086331;28;20191;-68
2022/01/18 05:56:16;;;;;;;1.77;1.63;;;;;;;3.04;62.42;100215.53;5076108;28;20203;-68
2022/01/18 05:58:44;;;;;;;1.50;1.50;;;;;;;3.04;63.13;100238.34;5071561;28;20672;-68
2022/01/18 06:01:13;;;;;;;5.97;1.33;;;;;;;2.80;64.83;100215.22;5072236;28;20196;-68
2022/01/18 06:04:05;;;;;;;2.30;2.17;;;;;;;2.78;64.60;100231.25;5072002;28;20200;-68
2022/01/18 06:09:14;;;;;;;1.30;1.30;;;;;;;2.89;65.99;100263.47;5072367;28;20575;-68
2022/01/18 06:11:42;;;;;;;2.93;2.40;;;;;;;2.90;66.34;100276.97;5072139;28;20210;-68
2022/01/18 06:14:08;;;;;;;1.40;1.40;;;;;;;2.77;66.55;100265.81;5072357;28;20199;-68
2022/01/18 06:16:35;;;;;;;9.87;2.20;;;;;;;2.89;66.21;100275.28;5072238;28;20199;-68
2022/01/18 06:19:03;;;;;;;1.37;1.37;;;;;;;2.89;67.06;100280.34;5072020;28;20196;-68
2022/01/18 06:21:31;;;;;;;1.80;1.70;;;;;;;2.83;67.26;100275.19;5072094;28;20212;-67
2022/01/18 06:23:58;;;;;;;1.73;1.63;;;;;;;2.83;68.00;100270.13;5072303;28;20216;-68
2022/01/18 06:26:25;;;;;;;2.67;1.90;;;;;;;2.79;68.63;100274.28;5072120;28;20196;-68
2022/01/18 06:28:53;;;;;;;2.57;1.70;;;;;;;2.78;67.79;100275.09;5071837;28;20200;-68
2022/01/18 06:31:20;;;;;;;1.87;1.77;;;;;;;2.81;68.92;100287.81;5071168;28;20648;-68
2022/01/18 06:33:46;;;;;;;2.13;2.03;;;;;;;2.71;69.03;100280.94;5071806;28;20250;-68
2022/01/18 06:36:13;;;;;;;2.20;2.10;;;;;;;2.84;68.70;100282.81;5071737;28;20192;-67
2022/01/18 06:38:41;;;;;;;2.50;2.30;;;;;;;2.84;69.04;100287.88;5072023;28;20848;-67
2022/01/18 06:41:08;;;;;;;4.40;2.10;;;;;;;2.89;69.69;100286.25;5071728;28;20192;-68
2022/01/18 06:43:35;;;;;;;1.93;1.83;;;;;;;2.90;69.40;100287.97;5070199;28;20223;-68
2022/01/18 06:46:02;;;;;;;2.00;1.57;;;;;;;2.95;69.75;100288.88;5069037;28;20239;-68
2022/01/18 06:48:29;;;;;;;2.50;1.90;;;;;;;2.93;70.09;100288.00;5069667;28;20205;-68
2022/01/18 06:50:56;;;;;;;1.90;1.80;;;;;;;2.93;70.25;100289.69;5066348;28;20589;-67
2022/01/18 06:53:22;;;;;;;2.10;2.00;;;;;;;2.95;71.14;100300.69;5070251;28;20216;-62
2022/01/18 06:55:54;;;;;;;1.60;1.50;;;;;;;2.99;71.07;100303.28;5070211;28;20200;-62
2022/01/18 06:58:21;;;;;;;8.33;2.00;;;;;;;3.04;70.99;100310.94;5071246;28;20295;-63
2022/01/18 07:00:47;;;;;;;2.10;2.00;;;;;;;3.02;71.31;100305.88;5071393;28;20721;-63
2022/01/18 07:03:15;;;;;;;2.23;1.87;;;;;;;3.07;71.15;100321.97;5072061;28;20223;-62
2022/01/18 07:05:42;;;;;;;4.57;1.83;;;;;;;3.11;71.78;100331.31;5069792;28;20609;-67
2022/01/18 07:08:09;;;;;;;1.77;1.57;;;;;;;3.14;71.62;100344.03;5067449;28;20637;-68
2022/01/18 07:10:35;;;;;;;1.83;1.73;;;;;;;3.23;71.06;100327.28;5067585;28;20741;-68
2022/01/18 07:13:04;;;;;;;1.80;1.70;;;;;;;3.26;71.22;100328.19;5068165;28;20567;-67
2022/01/18 07:15:31;;;;;;;2.30;2.20;;;;;;;3.30;71.98;100322.28;5068038;28;20326;-68
2022/01/18 07:17:57;;;;;;;4.00;1.57;;;;;;;3.35;71.87;100327.44;5069664;28;20196;-67
2022/01/18 07:20:24;;;;;;;1.50;1.40;;;;;;;3.40;71.54;100323.28;5068179;28;20702;-68
2022/01/18 07:22:51;;;;;;;1.27;1.27;;;;;;;3.43;71.11;100318.25;5068612;28;20200;-68
2022/01/18 07:25:18;;;;;;;2.17;1.50;;;;;;;3.47;72.11;100328.44;5068249;28;20220;-67
2022/01/18 07:27:45;;;;;;;4.93;3.50;;;;;;;3.54;70.04;100334.44;5067255;28;20228;-66
2022/01/18 07:30:13;;;;;;;3.37;2.70;;;;;;;3.60;69.29;100337.06;5068491;28;20212;-67
2022/01/18 07:32:40;;;;;;;2.47;2.27;;;;;;;3.66;68.86;100334.59;5067832;28;20200;-67
2022/01/18 07:35:08;;;;;;;9.57;3.13;;;;;;;3.72;68.63;100347.34;5070057;28;20200;-66
2022/01/18 07:37:36;;;;;;;2.40;2.20;;;;;;;3.78;68.07;100354.22;5070200;28;20698;-66
2022/01/18 07:40:04;;;;;;;2.60;2.40;;;;;;;3.86;68.02;100348.38;5067932;28;20204;-66
2022/01/18 07:42:31;;;;;;;3.13;2.23;;;;;;;3.92;66.85;100358.59;5068563;28;20206;-66
2022/01/18 07:44:58;;;;;;;6.07;2.10;;;;;;;3.97;67.60;100366.28;5066577;28;20223;-66
2022/01/18 07:47:26;;;;;;;2.37;2.27;;;;;;;4.06;66.66;100371.44;5068967;28;20200;-66
2022/01/18 07:49:53;;;;;;;6.83;2.07;;;;;;;4.11;66.26;100363.03;5066230;28;20227;-67
2022/01/18 07:52:20;;;;;;;10.30;4.43;;;;;;;4.15;65.62;100377.47;5067750;28;20218;-67
2022/01/18 07:54:47;;;;;;;1.93;1.83;;;;;;;4.18;65.38;100377.50;5067541;28;20694;-67
2022/01/18 07:57:15;;;;;;;1.60;1.50;;;;;;;4.34;65.20;100391.22;5068677;28;20196;-66
2022/01/18 07:59:42;;;;;;;2.60;1.70;;;;;;;4.44;65.86;100384.53;5068718;28;20596;-65
2022/01/18 08:02:09;;;;;;;1.53;1.43;;;;;;;4.54;64.22;100366.03;5069239;28;20575;-66
2022/01/18 08:04:37;;;;;;;3.03;1.40;;;;;;;4.57;64.46;100381.28;5068410;28;20294;-65
2022/01/18 08:07:04;;;;;;;1.30;1.30;;;;;;;4.53;63.94;100361.78;5069558;28;20211;-64
2022/01/18 08:09:31;;;;;;;1.23;1.23;;;;;;;4.70;63.52;100380.56;5069792;28;20261;-65
2022/01/18 08:11:58;;;;;;;1.73;1.30;;;;;;;4.84;62.91;100380.69;5069499;28;20561;-65
2022/01/18 08:14:29;;;;;;;1.87;1.60;;;;;;;4.92;63.27;100387.53;5068613;28;20196;-65
2022/01/18 08:17:01;;;;;;;1.27;1.27;;;;;;;4.94;62.28;100382.47;5068109;28;20208;-65
2022/01/18 08:19:28;;;;;;;2.07;1.40;;;;;;;5.05;60.88;100394.41;5066579;28;20218;-65
2022/01/18 08:21:58;;;;;;;1.30;1.30;;;;;;;5.10;61.23;100375.00;5067214;28;20295;-65
2022/01/18 08:24:25;;;;;;;2.00;1.90;;;;;;;5.28;61.43;100400.53;5065580;28;20685;-65
2022/01/18 08:26:53;;;;;;;2.30;1.70;;;;;;;5.36;60.72;100409.91;5065785;28;20233;-65
2022/01/18 08:29:19;;;;;;;1.33;1.33;;;;;;;5.36;59.81;100417.53;5069106;28;20261;-64
2022/01/18 08:31:47;;;;;;;1.30;1.20;;;;;;;5.48;57.31;100427.78;5066954;28;20204;-65
2022/01/18 08:34:15;;;;;;;1.20;1.20;;;;;;;5.48;56.92;100427.78;5063518;28;20587;-65
2022/01/18 08:36:42;;;;;;;1.67;1.57;;;;;;;5.57;58.91;100428.69;5068477;28;20210;-64
2022/01/18 08:39:10;;;;;;;3.40;1.53;;;;;;;5.58;57.65;100425.31;5068790;28;20210;-65
2022/01/18 08:41:37;;;;;;;1.60;1.50;;;;;;;5.47;58.31;100424.38;5066229;28;20293;-65
2022/01/18 08:44:05;;;;;;;1.47;1.40;;;;;;;5.50;58.88;100436.25;5068065;28;20314;-65
2022/01/18 08:46:31;;;;;;;1.33;1.30;;;;;;;5.60;61.07;100438.03;5067786;28;20234;-64
2022/01/18 08:48:58;;;;;;;1.77;1.67;;;;;;;5.65;60.63;100441.47;5068286;28;20675;-65
2022/01/18 08:51:26;;;;;;;1.80;1.70;;;;;;;5.73;59.71;100439.81;5068621;28;20211;-64
2022/01/18 08:53:52;;;;;;;1.97;1.87;;;;;;;5.80;59.34;100446.63;5069401;28;20200;-64
2022/01/18 08:56:22;;;;;;;1.87;1.77;;;;;;;5.85;59.07;100450.06;5067962;28;20200;-64
2022/01/18 08:58:50;;;;;;;4.73;1.50;;;;;;;6.00;59.39;100445.09;5068076;28;20267;-65
2022/01/18 09:01:18;;;;;;;1.67;1.57;;;;;;;6.11;58.47;100443.44;5066264;28;20196;-65
2022/01/18 09:03:45;;;;;;;1.83;1.73;;;;;;;6.16;58.47;100451.97;5067397;28;20200;-64
2022/01/18 09:06:14;;;;;;;1.37;1.37;;;;;;;6.18;57.78;100445.16;5059931;28;20560;-64
2022/01/18 09:08:41;;;;;;;2.23;2.13;;;;;;;6.22;57.90;100436.69;5064235;28;20200;-64
2022/01/18 09:11:10;;;;;;;2.60;1.80;;;;;;;6.24;56.56;100440.09;5064445;28;20216;-64
2022/01/18 09:13:39;;;;;;;1.47;1.37;;;;;;;6.19;55.46;100426.50;5066116;28;20234;-65
2022/01/18 09:16:09;;;;;;;2.10;1.87;;;;;;;6.26;56.62;100423.16;5068102;28;20200;-65
2022/01/18 09:18:37;;;;;;;6.60;1.53;;;;;;;6.40;54.91;100424.88;5067626;28;20203;-64
2022/01/18 09:21:04;;;;;;;1.43;1.40;;;;;;;6.44;56.05;100426.56;5068528;28;20204;-65
2022/01/18 09:23:32;;;;;;;1.77;1.67;;;;;;;6.51;56.80;100418.09;5068444;28;20210;-65
2022/01/18 09:26:00;;;;;;;1.93;1.67;;;;;;;6.58;56.35;100424.94;5068731;28;20270;-64
2022/01/18 09:28:27;;;;;;;3.17;2.97;;;;;;;6.58;55.60;100424.94;5066034;28;20211;-67
2022/01/18 09:30:55;;;;;;;1.97;1.87;;;;;;;6.61;56.04;100414.75;5068918;28;20913;-67
2022/01/18 09:33:22;;;;;;;1.40;1.40;;;;;;;6.68;56.33;100421.56;5070905;28;20208;-66
2022/01/18 09:35:50;;;;;;;1.53;1.43;;;;;;;6.72;56.44;100407.97;5072591;28;20192;-66
2022/01/18 09:38:17;;;;;;;1.80;1.70;;;;;;;6.85;56.12;100419.84;5071877;28;20208;-67
2022/01/18 09:40:45;;;;;;;1.40;1.37;;;;;;;6.84;55.33;100415.63;5071486;28;20295;-67
2022/01/18 09:43:15;;;;;;;1.70;1.60;;;;;;;6.86;55.66;100421.56;5072611;28;20664;-66
2022/01/18 09:45:43;;;;;;;1.77;1.67;;;;;;;6.91;55.46;100414.78;5072241;28;20679;-67
2022/01/18 09:48:13;;;;;;;1.60;1.50;;;;;;;6.92;55.09;100419.03;5072131;28;20200;-67
2022/01/18 09:50:42;;;;;;;1.60;1.50;;;;;;;6.90;54.10;100413.09;5072175;28;20291;-67
2022/01/18 09:53:11;;;;;;;1.60;1.57;;;;;;;6.93;53.39;100402.88;5071256;28;20290;-67
2022/01/18 09:55:38;;;;;;;2.53;2.17;;;;;;;6.95;55.34;100390.97;5068681;28;20200;-67
2022/01/18 09:58:07;;;;;;;1.37;1.37;;;;;;;6.99;54.90;100395.25;5070009;28;20303;-65
2022/01/18 10:00:38;;;;;;;1.40;1.30;;;;;;;7.10;56.90;100385.91;5070044;28;20679;-65
2022/01/18 10:03:09;;;;;;;1.47;1.37;;;;;;;7.15;54.73;100394.38;5071580;28;20204;-66
2022/01/18 10:05:38;;;;;;;3.60;1.67;;;;;;;7.23;56.17;100392.69;5071514;28;20211;-65
2022/01/18 10:08:08;;;;;;;3.77;2.03;;;;;;;7.32;54.89;100387.59;5071558;28;20208;-65
2022/01/18 10:10:41;;;;;;;1.63;1.40;;;;;;;7.21;53.80;100389.28;5071943;28;20222;-65
2022/01/18 10:13:08;;;;;;;1.87;1.60;;;;;;;7.25;55.25;100390.97;5070955;28;20207;-65
2022/01/18 10:15:36;;;;;;;1.83;1.73;;;;;;;7.24;54.87;100376.53;5069705;28;20575;-65
2022/01/18 10:18:08;;;;;;;1.40;1.40;;;;;;;7.12;53.46;100386.75;5071493;28;20215;-64
2022/01/18 10:20:51;;;;;;;4.23;1.73;;;;;;;7.17;55.75;100382.47;5071407;28;20200;-65
2022/01/18 10:23:22;;;;;;;1.17;1.17;;;;;;;7.17;55.71;100377.38;5071027;28;20634;-64
2022/01/18 10:25:49;;;;;;;2.67;1.60;;;;;;;7.14;56.23;100346.78;5071191;28;20242;-65
2022/01/18 10:28:32;;;;;;;5.20;1.83;;;;;;;7.37;55.93;100369.69;5070344;28;20291;-65
2022/01/18 10:31:01;;;;;;;4.13;2.13;;;;;;;7.42;54.52;100368.00;5067908;28;20283;-65
2022/01/18 10:33:35;;;;;;;2.37;2.20;;;;;;;7.38;55.30;100369.72;5070510;28;20626;-63
2022/01/18 10:36:09;;;;;;;2.00;1.90;;;;;;;7.40;54.87;100378.19;5068461;28;20609;-65
2022/01/18 10:38:36;;;;;;;3.47;3.17;;;;;;;7.42;53.26;100362.91;5068530;28;20672;-64
2022/01/18 10:41:27;;;;;;;3.27;2.97;;;;;;;7.53;55.63;100361.16;5070671;28;20199;-64
2022/01/18 10:44:06;;;;;;;4.60;2.67;;;;;;;7.55;52.91;100363.72;5069579;28;20232;-65
2022/01/18 10:46:38;;;;;;;3.93;3.60;;;;;;;7.47;53.89;100365.44;5066030;28;20231;-66
2022/01/18 10:49:07;;;;;;;1.70;1.60;;;;;;;7.46;53.52;100361.19;5068710;28;20739;-66
2022/01/18 10:51:37;;;;;;;1.70;1.60;;;;;;;7.52;54.80;100361.19;5068601;28;20636;-66
2022/01/18 10:54:07;;;;;;;2.67;2.47;;;;;;;7.58;54.11;100353.50;5070216;28;20200;-67
2022/01/18 10:56:41;;;;;;;2.20;2.00;;;;;;;7.71;53.05;100334.75;5070108;28;20200;-66
2022/01/18 10:59:09;;;;;;;1.80;1.70;;;;;;;7.67;54.38;100344.13;5068594;28;20283;-67
2022/01/18 11:01:36;;;;;;;2.33;1.93;;;;;;;7.67;54.32;100343.25;5068007;28;20287;-66
2022/01/18 11:04:07;;;;;;;2.40;2.30;;;;;;;7.79;52.81;100341.50;5070260;28;20208;-66
2022/01/18 11:06:36;;;;;;;2.27;2.07;;;;;;;7.64;53.06;100325.41;5069040;28;20231;-64
2022/01/18 11:09:13;;;;;;;2.17;2.07;;;;;;;7.76;52.54;100343.22;5070141;28;20199;-65
2022/01/18 11:11:47;;;;;;;1.10;1.10;;;;;;;7.85;53.71;100344.03;5069669;28;20568;-65
2022/01/18 11:14:18;;;;;;;1.70;1.60;;;;;;;7.82;51.46;100343.19;5069528;28;20649;-66
2022/01/18 11:16:46;;;;;;;1.70;1.60;;;;;;;7.73;53.53;100338.13;5069812;28;20206;-65
2022/01/18 11:19:29;;;;;;;4.73;1.47;;;;;;;7.73;53.53;100348.34;5069572;28;20599;-65
2022/01/18 11:22:04;;;;;;;1.60;1.50;;;;;;;7.68;53.58;100338.16;5069481;28;20199;-66
2022/01/18 11:24:31;;;;;;;2.17;2.07;;;;;;;7.74;52.40;100340.69;5066489;28;20210;-65
2022/01/18 11:27:00;;;;;;;1.90;1.80;;;;;;;7.73;53.42;100345.78;5064703;28;20224;-65
2022/01/18 11:29:28;;;;;;;2.80;2.10;;;;;;;7.78;52.67;100346.63;5068326;28;20219;-65
2022/01/18 11:31:56;;;;;;;1.53;1.30;;;;;;;7.78;53.01;100341.53;5066713;28;20943;-65
2022/01/18 11:34:33;;;;;;;1.87;1.77;;;;;;;7.87;54.80;100346.59;5068743;28;20208;-65
2022/01/18 11:37:10;;;;;;;1.90;1.80;;;;;;;7.89;53.65;100338.06;5068898;28;20206;-65
2022/01/18 11:39:37;;;;;;;2.20;2.00;;;;;;;7.93;53.77;100346.56;5069245;28;20291;-66
2022/01/18 11:42:10;;;;;;;1.53;1.53;;;;;;;7.91;53.93;100353.41;5070256;28;20589;-65
2022/01/18 11:44:37;;;;;;;1.33;1.33;;;;;;;7.84;51.69;100356.81;5068576;28;20327;-65
2022/01/18 11:47:05;;;;;;;2.17;1.90;;;;;;;7.68;52.52;100352.63;5066799;28;20231;-65
2022/01/18 11:49:34;;;;;;;2.20;2.00;;;;;;;7.72;53.83;100346.66;5067990;28;20634;-65
2022/01/18 11:52:05;;;;;;;2.00;1.90;;;;;;;7.75;53.58;100341.56;5069290;28;20204;-65
2022/01/18 11:54:43;;;;;;;3.67;1.90;;;;;;;7.86;55.20;100344.88;5067074;28;20295;-65
2022/01/18 11:57:35;;;;;;;2.10;2.00;;;;;;;7.91;54.65;100338.06;5069125;28;20223;-66
2022/01/18 12:00:21;;;;;;;2.27;2.07;;;;;;;7.95;52.95;100334.63;5067374;28;20300;-66
2022/01/18 12:02:52;;;;;;;3.00;2.80;;;;;;;7.91;52.90;100343.19;5066658;28;20200;-65
2022/01/18 12:05:21;;;;;;;2.50;2.30;;;;;;;7.95;53.20;100329.53;5066409;28;20303;-66
2022/01/18 12:07:55;;;;;;;2.13;2.03;;;;;;;7.91;53.45;100333.81;5067424;28;20220;-66
2022/01/18 12:10:45;;;;;;;2.27;2.17;;;;;;;7.82;53.46;100320.22;5066668;28;20725;-66
2022/01/18 12:13:14;;;;;;;3.20;1.80;;;;;;;7.87;55.69;100326.19;5066346;28;20200;-66
2022/01/18 12:15:49;;;;;;;2.20;2.10;;;;;;;7.99;54.48;100310.78;5062970;28;20281;-67
2022/01/18 12:18:18;;;;;;;2.33;2.23;;;;;;;7.91;53.00;100328.72;5067698;28;20210;-65
2022/01/18 12:20:47;;;;;;;6.03;1.87;;;;;;;7.86;52.81;100314.25;5068684;28;20208;-65
2022/01/18 12:23:17;;;;;;;1.90;1.80;;;;;;;7.85;52.29;100322.78;5066496;28;20265;-66
2022/01/18 12:25:56;;;;;;;2.30;1.70;;;;;;;7.78;53.66;100314.31;5067878;28;20261;-65
2022/01/18 12:28:47;;;;;;;1.90;1.30;;;;;;;7.83;53.99;100311.72;5068731;28;20207;-65
2022/01/18 12:32:18;;;;;;;2.00;1.90;;;;;;;7.83;53.48;100310.03;5068886;28;20226;-67
2022/01/18 12:34:48;;;;;;;1.43;1.37;;;;;;;7.75;53.42;100305.81;5067666;28;20261;-66
2022/01/18 12:37:38;;;;;;;1.83;1.73;;;;;;;7.72;52.69;100303.28;5069046;28;20206;-66
2022/01/18 12:40:22;;;;;;;4.40;1.83;;;;;;;7.62;53.41;100305.03;5068800;28;20572;-65
2022/01/18 12:45:47;;;;;;;2.33;1.40;;;;;;;7.73;53.47;100294.75;5067285;28;20206;-68